Weather reports worldwide

Advertisment
Bala, United Kingdom (3409): temperature & dewpoint: 04.04.2020 19:00:00 - 10.04.2020 19:00:00 (BST)Bala, United Kingdom (3409): temperature -20cm & temperature -100cm: 04.04.2020 19:00:00 - 10.04.2020 19:00:00 (BST)Bala, United Kingdom (3409): wind speed & gusts: 04.04.2020 19:00:00 - 10.04.2020 19:00:00 (BST)Bala, United Kingdom (3409): wind direction: 04.04.2020 19:00:00 - 10.04.2020 19:00:00 (BST)Bala, United Kingdom (3409): reduced air pressure: 04.04.2020 19:00:00 - 10.04.2020 19:00:00 (BST)Bala, United Kingdom (3409): sunshine duration: 04.04.2020 19:00:00 - 10.04.2020 19:00:00 (BST)Bala, United Kingdom (3409): precipitation: 04.04.2020 19:00:00 - 10.04.2020 19:00:00 (BST)
Date & Time tt [°C] td [°C] tt -20cm [°C] tt -100cm [°C] ff [km/h] ff [kn] fx [km/h] fx [kn] dd ppp [hPa] sd [min] rr [mm]
10.04.2020 19:00:00 15,0 10,7 - - 8 4 - - E 1021,7 0 0,4
10.04.2020 18:00:00 17,0 10,7 - - 18 10 - - SE 1021,3 24 0,0
10.04.2020 17:00:00 16,7 12,1 - - 16 9 - - SE 1021,4 0 0,0
10.04.2020 16:00:00 21,2 9,9 - - 13 7 - - SE 1021,0 36 0,0
10.04.2020 15:00:00 21,8 9,7 - - 9 5 - - SSE 1021,4 60 0,0
10.04.2020 14:00:00 20,4 8,8 - - 9 5 - - SSE 1021,8 60 0,0
10.04.2020 13:00:00 20,0 10,0 - - 4 2 - - NNE 1022,3 60 0,0
10.04.2020 12:00:00 18,6 9,3 - - 8 4 - - SW 1022,8 36 0,0
10.04.2020 11:00:00 16,5 8,3 - - 5 3 - - WSW 1023,4 60 0,0
10.04.2020 10:00:00 14,8 10,4 9,7 8,2 2 1 - - SW 1023,7 48 0,0
10.04.2020 09:00:00 8,9 8,7 - - 2 1 - - ENE 1024,3 0 0,0
10.04.2020 08:00:00 6,1 6,0 - - 2 1 - - ENE 1024,7 0 0,0
10.04.2020 07:00:00 4,8 4,6 - - 2 1 - - N 1024,8 0 0,0
10.04.2020 06:00:00 5,3 5,0 - - 2 1 - - SW 1024,9 0 0,0
10.04.2020 05:00:00 4,9 4,2 - - 2 1 - - ENE 1025,2 0 0,0
10.04.2020 04:00:00 7,2 6,4 - - 0 0 - - N 1024,9 0 0,0
10.04.2020 03:00:00 7,8 6,9 - - 4 2 - - WNW 1025,2 0 0,0
10.04.2020 02:00:00 8,6 7,3 - - 2 1 - - N 1025,0 0 0,0
10.04.2020 01:00:00 8,7 7,6 - - 2 1 - - S 1025,2 - 0,0
10.04.2020 00:00:00 9,5 7,7 - - 4 2 - - W 1025,4 0 0,0
09.04.2020 23:00:00 12,4 8,5 - - 2 1 - - NNW 1025,2 0 0,0
09.04.2020 22:00:00 12,6 8,8 - - 4 2 - - NNE 1025,3 0 0,0
09.04.2020 21:00:00 13,3 9,3 - - 2 1 - - NE 1024,8 0 0,0
09.04.2020 20:00:00 15,9 10,3 - - 11 6 - - ENE 1023,9 0 0,0
09.04.2020 19:00:00 17,6 10,6 - - 13 7 - - E 1023,3 0 0,0
09.04.2020 18:00:00 18,4 10,6 - - 13 7 - - E 1023,2 24 0,0
09.04.2020 17:00:00 18,9 10,4 - - 11 6 - - ESE 1023,3 18 0,0
09.04.2020 16:00:00 18,4 10,4 - - 8 4 - - E 1023,8 0 0,0
09.04.2020 15:00:00 18,5 10,6 - - 8 4 - - E 1024,2 18 0,0
09.04.2020 14:00:00 18,1 10,5 - - 11 6 - - E 1024,4 12 0,0
09.04.2020 13:00:00 17,4 9,9 - - 13 7 - - ENE 1024,7 42 0,0
09.04.2020 12:00:00 17,8 9,7 - - 9 5 - - E 1025,0 60 0,0
09.04.2020 11:00:00 16,1 8,4 - - 15 8 - - E 1025,4 60 0,0
09.04.2020 10:00:00 10,2 8,9 9,2 8,0 4 2 - - E 1025,9 36 0,0
09.04.2020 09:00:00 6,3 6,3 - - 2 1 - - N 1026,2 6 0,0
09.04.2020 08:00:00 3,5 3,5 - - 0 0 - - N 1026,2 0 0,0
09.04.2020 07:00:00 2,3 2,1 - - 0 0 - - N 1026,1 0 0,0
09.04.2020 06:00:00 2,9 2,8 - - 2 1 - - NW 1025,8 0 0,0
09.04.2020 05:00:00 3,4 3,2 - - 2 1 - - ESE 1025,8 0 0,0
09.04.2020 04:00:00 3,4 3,0 - - 4 2 - - ENE 1025,9 0 0,0
09.04.2020 03:00:00 4,5 4,2 - - 2 1 - - S 1026,0 0 0,0
09.04.2020 02:00:00 4,8 4,2 - - 2 1 - - ENE 1026,1 0 0,0
09.04.2020 01:00:00 5,7 4,9 - - 0 0 - - N 1025,9 - 0,0
09.04.2020 00:00:00 6,5 5,1 - - 2 1 - - ENE 1025,9 0 0,0
08.04.2020 23:00:00 7,4 5,5 - - 2 1 - - NNE 1025,9 0 0,0
08.04.2020 22:00:00 8,6 6,0 - - 8 4 - - ENE 1025,6 0 0,0
08.04.2020 21:00:00 12,5 7,0 - - 11 6 - - E 1024,9 0 0,0
08.04.2020 20:00:00 14,1 7,7 - - 8 4 - - E 1024,4 0 0,0
08.04.2020 19:00:00 16,0 8,9 - - 4 2 - - ENE 1023,8 0 0,0
08.04.2020 18:00:00 18,4 8,4 - - 2 1 - - ESE 1023,0 6 0,0
08.04.2020 17:00:00 18,4 8,1 - - 4 2 - - W 1023,3 0 0,0
08.04.2020 16:00:00 18,4 8,2 - - 5 3 - - WNW 1023,3 6 0,0
08.04.2020 15:00:00 18,4 8,0 - - 8 4 - - WSW 1023,7 42 0,0
08.04.2020 14:00:00 18,7 7,8 - - 11 6 - - W 1023,9 54 0,0
08.04.2020 13:00:00 17,8 7,6 - - 11 6 - - WSW 1024,3 48 0,0
08.04.2020 12:00:00 16,6 7,5 - - 9 5 - - WSW 1025,0 42 0,0
08.04.2020 11:00:00 15,6 8,0 - - 2 1 - - WSW 1025,5 60 0,0
08.04.2020 10:00:00 11,4 7,0 8,7 7,7 4 2 - - SSW 1025,9 60 0,0
08.04.2020 09:00:00 8,2 5,2 - - 4 2 - - W 1026,3 54 0,0
08.04.2020 08:00:00 5,6 4,9 - - 2 1 - - WSW 1026,6 6 0,0
08.04.2020 07:00:00 4,5 3,5 - - 2 1 - - ESE 1026,4 0 0,0
08.04.2020 06:00:00 5,4 4,2 - - 4 2 - - WSW 1026,6 0 0,0
08.04.2020 05:00:00 4,9 4,1 - - 2 1 - - ENE 1026,8 0 0,0
08.04.2020 04:00:00 4,3 3,6 - - 2 1 - - E 1027,1 0 0,0
08.04.2020 03:00:00 4,0 3,1 - - 2 1 - - NW 1027,3 0 0,0
08.04.2020 02:00:00 3,7 3,0 - - 2 1 - - ENE 1027,8 0 0,0
08.04.2020 01:00:00 4,5 3,0 - - 2 1 - - NNE 1027,9 - 0,0
08.04.2020 00:00:00 5,2 3,5 - - 2 1 - - W 1027,8 0 0,0
07.04.2020 23:00:00 5,1 3,8 - - 2 1 - - N 1027,7 0 0,0
07.04.2020 22:00:00 5,2 2,6 - - 2 1 - - WNW 1027,7 0 0,0
07.04.2020 21:00:00 8,0 4,5 - - 0 0 - - N 1027,3 0 0,0
07.04.2020 20:00:00 11,4 5,2 - - 8 4 - - WSW 1026,7 36 0,0
07.04.2020 19:00:00 13,7 4,7 - - 11 6 - - SW 1026,5 42 0,0
07.04.2020 18:00:00 14,3 4,9 - - 13 7 - - WSW 1026,6 36 0,0
07.04.2020 17:00:00 15,7 5,1 - - 13 7 - - SSW 1026,5 54 0,0
07.04.2020 16:00:00 15,9 4,8 - - 16 9 - - SW 1026,9 54 0,0
07.04.2020 15:00:00 15,7 4,6 - - 11 6 - - SSE 1027,4 60 0,0
07.04.2020 14:00:00 15,5 6,2 - - 8 4 - - S 1027,7 60 0,0
07.04.2020 13:00:00 14,6 5,8 - - 9 5 - - SSE 1028,0 60 0,0
07.04.2020 12:00:00 12,8 3,7 - - 9 5 - - S 1028,7 60 0,0
07.04.2020 11:00:00 11,7 3,9 - - 11 6 - - S 1029,2 60 0,0
07.04.2020 10:00:00 6,0 5,6 8,2 7,7 2 1 - - NE 1030,0 60 0,0
07.04.2020 09:00:00 2,1 2,1 - - 4 2 - - SW 1030,6 24 0,2
07.04.2020 08:00:00 -0,2 -0,3 - - 0 0 - - N 1030,6 0 0,0
07.04.2020 07:00:00 -0,6 -0,7 - - 0 0 - - N 1030,3 0 0,0
07.04.2020 06:00:00 -0,8 -1,0 - - 2 1 - - WNW 1029,9 0 0,0
07.04.2020 05:00:00 -0,4 -0,5 - - 2 1 - - WSW 1029,7 0 0,0
07.04.2020 04:00:00 0,0 -0,3 - - 0 0 - - N 1029,3 0 0,0
07.04.2020 03:00:00 0,4 0,1 - - 4 2 - - E 1029,0 0 0,0
07.04.2020 02:00:00 1,5 0,9 - - 2 1 - - ENE 1028,5 0 0,0
07.04.2020 01:00:00 3,2 2,7 - - 4 2 - - SW 1027,8 - 0,0
07.04.2020 00:00:00 3,7 2,9 - - 5 3 - - SSW 1027,3 0 0,0
06.04.2020 23:00:00 5,2 4,1 - - 4 2 - - NW 1026,3 0 0,0
06.04.2020 22:00:00 5,1 3,5 - - 4 2 - - SSW 1025,7 0 0,0
06.04.2020 21:00:00 5,9 3,7 - - 4 2 - - WSW 1024,9 0 0,0
06.04.2020 20:00:00 8,1 3,4 - - 5 3 - - SSW 1023,4 36 0,0
06.04.2020 19:00:00 10,0 2,8 - - 13 7 - - WSW 1022,6 60 0,0
06.04.2020 18:00:00 10,6 2,7 - - 16 9 - - SW 1021,7 54 0,0
06.04.2020 17:00:00 11,6 3,0 - - 21 11 - - SW 1020,4 60 0,0
06.04.2020 16:00:00 11,3 2,2 - - 24 13 - - SW 1019,4 54 0,0
06.04.2020 15:00:00 11,3 3,2 - - 22 12 - - WSW 1018,6 54 0,0
06.04.2020 14:00:00 11,2 4,0 - - 26 14 - - SW 1017,4 48 0,0
06.04.2020 13:00:00 10,4 5,0 - - 22 12 - - WSW 1016,5 18 0,0
06.04.2020 12:00:00 10,0 6,0 - - 18 10 - - WSW 1015,2 18 0,0
06.04.2020 11:00:00 9,6 6,1 - - 21 11 - - WSW 1014,1 0 0,0
06.04.2020 10:00:00 9,4 7,0 8,4 7,5 22 12 - - SW 1012,7 6 0,0
06.04.2020 09:00:00 9,1 6,3 - - 18 10 - - WSW 1011,5 0 0,0
06.04.2020 08:00:00 8,9 6,1 - - 21 11 - - WSW 1010,2 0 0,0
06.04.2020 07:00:00 8,8 6,6 - - 24 13 - - SW 1008,7 0 0,0
06.04.2020 06:00:00 8,9 6,6 - - 24 13 - - SW 1007,7 0 0,0
06.04.2020 05:00:00 9,1 7,0 - - 22 12 - - SW 1006,5 0 0,0
06.04.2020 04:00:00 9,4 7,6 - - 16 9 - - WSW 1006,2 0 0,0
06.04.2020 03:00:00 9,5 8,1 - - 16 9 59 32 SW 1005,5 0 0,6
06.04.2020 02:00:00 12,0 10,4 - - 16 9 - - SW 1003,7 0 0,4
06.04.2020 01:00:00 12,7 10,8 - - 13 7 - - S 1003,3 - 0,8
06.04.2020 00:00:00 12,6 10,7 - - 8 4 - - S 1003,5 0 2,6
05.04.2020 23:00:00 13,1 9,7 - - 13 7 - - S 1003,3 0 1,0
05.04.2020 22:00:00 14,5 8,1 - - 11 6 - - SSW 1003,6 0 0,2
05.04.2020 21:00:00 15,4 7,5 - - 16 9 - - SSE 1003,7 0 0,0
05.04.2020 20:00:00 15,7 7,2 - - 15 8 50 27 S 1003,9 0 0,0
05.04.2020 19:00:00 16,5 6,4 - - 21 11 46 25 SSW 1003,9 30 0,0
05.04.2020 18:00:00 18,4 5,7 - - 22 12 46 25 S 1003,8 60 0,0
05.04.2020 17:00:00 20,4 6,4 - - 15 8 - - S 1003,8 60 0,0
05.04.2020 16:00:00 20,0 7,0 - - 24 13 - - SSE 1004,3 60 0,0
05.04.2020 15:00:00 18,8 7,2 - - 18 10 - - SSE 1005,3 60 0,0
05.04.2020 14:00:00 17,2 6,2 - - 18 10 - - ESE 1006,1 24 0,0
05.04.2020 13:00:00 14,5 4,7 - - 16 9 - - SSE 1007,0 0 0,0
05.04.2020 12:00:00 12,9 4,3 - - 21 11 - - SE 1007,9 0 0,0
05.04.2020 11:00:00 11,5 4,1 - - 13 7 - - ESE 1008,8 0 0,0
05.04.2020 10:00:00 9,9 3,6 7,7 7,4 15 8 - - ESE 1009,8 6 0,0
05.04.2020 09:00:00 10,0 3,6 - - 8 4 - - NW 1010,4 42 0,0
05.04.2020 08:00:00 7,3 3,5 - - 5 3 - - NNE 1011,5 24 0,0
05.04.2020 07:00:00 6,3 2,2 - - 5 3 - - ENE 1011,9 0 0,0
05.04.2020 06:00:00 3,4 1,6 - - 5 3 - - S 1012,6 0 0,0
05.04.2020 05:00:00 2,6 1,1 - - 2 1 - - S 1013,2 0 0,0
05.04.2020 04:00:00 3,7 1,3 - - 4 2 - - ENE 1013,6 0 0,0
05.04.2020 03:00:00 5,3 1,7 - - 4 2 - - E 1014,2 0 0,0
05.04.2020 02:00:00 5,4 1,8 - - 4 2 - - NNE 1015,0 0 0,0
05.04.2020 01:00:00 6,5 2,3 - - 5 3 - - N 1015,6 - 0,0
05.04.2020 00:00:00 6,7 2,3 - - 4 2 - - E 1015,9 0 0,0
04.04.2020 23:00:00 7,3 2,3 - - 4 2 - - E 1015,7 0 0,0
04.04.2020 22:00:00 9,4 2,6 - - 8 4 - - S 1015,9 0 0,0
04.04.2020 21:00:00 11,1 3,6 - - 8 4 - - SE 1015,6 0 0,0
04.04.2020 20:00:00 12,2 4,0 - - 8 4 - - S 1015,2 18 0,0
04.04.2020 19:00:00 12,8 4,4 - - 8 4 - - S 1014,9 12 0,0

tt = temperature
td = dewpoint
tt -20cm = temperature -20cm
tt -100cm = temperature -100cm
ff = wind speed
fx = gusts
dd = wind direction
ppp = reduced air pressure
sd = sunshine duration
rr = precipitation

Next stations